createdAt,value
2019-01-23T00:00:51.868Z,77.72
2019-01-23T00:03:19.345Z,77.53
2019-01-23T00:05:47.088Z,77.61
2019-01-23T00:08:15.203Z,77.30
2019-01-23T00:10:42.683Z,77.09
2019-01-23T00:13:10.178Z,76.71
2019-01-23T00:15:38.295Z,76.41
2019-01-23T00:18:06.127Z,76.72
2019-01-23T00:20:33.766Z,77.38
2019-01-23T00:23:01.351Z,77.47
2019-01-23T00:25:28.852Z,77.74
2019-01-23T00:27:56.309Z,78.27
2019-01-23T00:30:23.788Z,77.91
2019-01-23T00:32:52.055Z,77.67
2019-01-23T00:35:19.540Z,78.20
2019-01-23T00:37:47.051Z,77.72
2019-01-23T00:40:15.168Z,78.14
2019-01-23T00:42:43.459Z,77.88
2019-01-23T00:45:11.732Z,78.09
2019-01-23T00:47:39.261Z,78.11
2019-01-23T00:50:06.751Z,77.82
2019-01-23T00:52:34.221Z,78.09
2019-01-23T00:55:01.687Z,77.59
2019-01-23T00:57:29.186Z,77.82
2019-01-23T00:59:56.700Z,78.06
2019-01-23T01:02:24.216Z,77.76
2019-01-23T01:04:51.970Z,77.81
2019-01-23T01:07:19.566Z,77.33
2019-01-23T01:09:47.059Z,77.14
2019-01-23T01:12:15.198Z,77.21
2019-01-23T01:14:42.699Z,77.55
2019-01-23T01:17:10.154Z,76.74
2019-01-23T01:19:37.650Z,77.87
2019-01-23T01:22:05.151Z,77.29
2019-01-23T01:24:32.617Z,76.54
2019-01-23T01:27:00.108Z,76.37
2019-01-23T01:29:27.603Z,75.36
2019-01-23T01:31:55.087Z,75.36
2019-01-23T01:34:23.331Z,75.27
2019-01-23T01:36:50.821Z,75.12
2019-01-23T01:39:18.287Z,74.47
2019-01-23T01:41:45.772Z,73.80
2019-01-23T01:44:13.233Z,74.20
2019-01-23T01:46:40.699Z,73.99
2019-01-23T01:49:08.197Z,73.91
2019-01-23T01:51:35.737Z,73.82
2019-01-23T01:54:03.464Z,73.92
2019-01-23T01:56:30.931Z,74.66
2019-01-23T01:59:02.712Z,74.10
2019-01-23T02:01:25.921Z,73.50
2019-01-23T02:03:53.996Z,72.96
2019-01-23T02:06:21.451Z,72.98
2019-01-23T02:08:48.933Z,72.85
2019-01-23T02:11:16.427Z,73.29
2019-01-23T02:13:43.885Z,73.34
2019-01-23T02:16:12.196Z,72.81
2019-01-23T02:18:39.669Z,72.47
2019-01-23T02:21:07.173Z,72.24
2019-01-23T02:23:34.656Z,71.84
2019-01-23T02:26:02.163Z,71.79
2019-01-23T02:28:29.660Z,72.31
2019-01-23T02:30:57.173Z,72.24
2019-01-23T02:33:24.636Z,72.13
2019-01-23T02:35:52.111Z,71.97
2019-01-23T02:38:19.600Z,71.95
2019-01-23T02:40:47.113Z,72.03
2019-01-23T02:43:14.592Z,71.58
2019-01-23T02:45:42.046Z,71.43
2019-01-23T02:48:09.550Z,71.35
2019-01-23T02:50:37.020Z,71.58
2019-01-23T02:53:04.551Z,71.29
2019-01-23T02:55:32.034Z,72.83
2019-01-23T02:57:59.509Z,72.34
2019-01-23T03:00:27.010Z,72.08
2019-01-23T03:02:55.011Z,72.54
2019-01-23T03:05:22.495Z,71.60
2019-01-23T03:07:50.020Z,71.57
2019-01-23T03:10:17.515Z,71.79
2019-01-23T03:12:44.982Z,71.55
2019-01-23T03:15:13.272Z,72.08
2019-01-23T03:17:40.771Z,71.16
2019-01-23T03:20:08.273Z,70.51
2019-01-23T03:22:35.742Z,70.87
2019-01-23T03:25:03.232Z,71.08
2019-01-23T03:27:30.704Z,71.54
2019-01-23T03:29:58.180Z,70.60
2019-01-23T03:32:25.679Z,71.38
2019-01-23T03:34:53.213Z,70.72
2019-01-23T03:37:20.708Z,71.85
2019-01-23T03:39:48.171Z,71.80
2019-01-23T03:42:15.658Z,71.29
2019-01-23T03:44:43.131Z,73.12
2019-01-23T03:47:10.634Z,71.52
2019-01-23T03:49:38.104Z,72.05
2019-01-23T03:52:05.610Z,72.00
2019-01-23T03:54:33.091Z,73.29
2019-01-23T03:57:00.626Z,72.34
2019-01-23T03:59:32.132Z,73.23
2019-01-23T04:01:55.992Z,72.45
2019-01-23T04:04:23.480Z,71.77
2019-01-23T04:06:50.955Z,71.23
2019-01-23T04:09:18.451Z,71.29
2019-01-23T04:11:45.951Z,72.48
2019-01-23T04:14:13.472Z,71.88
2019-01-23T04:16:40.921Z,71.66
2019-01-23T04:19:08.360Z,71.57
2019-01-23T04:21:35.801Z,71.80
2019-01-23T04:24:03.254Z,72.08
2019-01-23T04:26:30.725Z,72.08
2019-01-23T04:28:58.249Z,71.62
2019-01-23T04:31:26.499Z,71.85
2019-01-23T04:33:53.947Z,71.90
2019-01-23T04:36:21.425Z,71.42
2019-01-23T04:38:48.879Z,71.14
2019-01-23T04:41:16.329Z,70.05
2019-01-23T04:43:43.785Z,70.83
2019-01-23T04:46:12.246Z,71.80
2019-01-23T04:48:39.796Z,71.56
2019-01-23T04:51:07.685Z,71.48
2019-01-23T04:53:35.188Z,72.25
2019-01-23T04:56:02.622Z,71.00
2019-01-23T04:58:30.068Z,70.51
2019-01-23T05:00:57.530Z,70.41
2019-01-23T05:03:24.970Z,70.06
2019-01-23T05:05:52.439Z,70.70
2019-01-23T05:08:20.741Z,70.03
2019-01-23T05:10:48.260Z,69.48
2019-01-23T05:13:15.694Z,69.51
2019-01-23T05:15:43.141Z,69.30
2019-01-23T05:18:10.937Z,69.74
2019-01-23T05:20:38.407Z,69.74
2019-01-23T05:23:05.870Z,69.46
2019-01-23T05:25:33.364Z,69.36
2019-01-23T05:28:00.830Z,68.99
2019-01-23T05:30:28.256Z,69.13
2019-01-23T05:32:55.714Z,69.10
2019-01-23T05:35:23.182Z,69.00
2019-01-23T05:37:50.711Z,68.99
2019-01-23T05:40:18.177Z,69.28
2019-01-23T05:42:45.618Z,68.82
2019-01-23T05:45:13.099Z,69.25
2019-01-23T05:47:40.537Z,69.65
2019-01-23T05:50:07.975Z,69.26
2019-01-23T05:52:35.403Z,69.07
2019-01-23T05:55:02.851Z,69.14
2019-01-23T05:57:30.307Z,69.08
2019-01-23T06:00:02.296Z,68.09
2019-01-23T06:02:25.573Z,68.19
2019-01-23T06:04:53.029Z,68.11
2019-01-23T06:07:20.515Z,68.19
2019-01-23T06:09:47.945Z,68.09
2019-01-23T06:12:15.387Z,69.73
2019-01-23T06:14:42.854Z,68.68
2019-01-23T06:17:10.309Z,67.82
2019-01-23T06:19:37.750Z,68.50
2019-01-23T06:22:05.179Z,68.49
2019-01-23T06:24:32.619Z,68.03
2019-01-23T06:27:00.102Z,67.77
2019-01-23T06:29:28.412Z,67.43
2019-01-23T06:31:55.935Z,67.23
2019-01-23T06:34:23.379Z,67.46
2019-01-23T06:36:50.833Z,67.22
2019-01-23T06:39:18.287Z,67.10
2019-01-23T06:41:46.320Z,67.07
2019-01-23T06:44:13.766Z,66.80
2019-01-23T06:46:41.217Z,66.74
2019-01-23T06:49:08.679Z,66.82
2019-01-23T06:51:36.897Z,66.76
2019-01-23T06:54:04.475Z,68.04
2019-01-23T06:56:31.944Z,67.69
2019-01-23T06:58:59.381Z,66.91
2019-01-23T07:01:26.842Z,66.75
2019-01-23T07:03:54.287Z,67.10
2019-01-23T07:06:21.719Z,67.46
2019-01-23T07:08:49.174Z,67.58
2019-01-23T07:11:16.615Z,67.51
2019-01-23T07:13:44.049Z,67.35
2019-01-23T07:16:11.510Z,67.46
2019-01-23T07:18:38.972Z,67.25
2019-01-23T07:21:06.441Z,67.09
2019-01-23T07:23:33.933Z,67.20
2019-01-23T07:26:01.383Z,67.18
2019-01-23T07:28:29.851Z,67.28
2019-01-23T07:30:57.318Z,67.25
2019-01-23T07:33:24.826Z,67.20
2019-01-23T07:35:52.289Z,67.41
2019-01-23T07:38:19.709Z,67.70
2019-01-23T07:40:47.163Z,67.78
2019-01-23T07:43:14.675Z,67.88
2019-01-23T07:45:42.134Z,68.03
2019-01-23T07:48:09.551Z,68.12
2019-01-23T07:50:36.999Z,68.15
2019-01-23T07:53:04.454Z,68.37
2019-01-23T07:55:31.901Z,68.47
2019-01-23T07:57:59.412Z,68.47
2019-01-23T08:00:31.278Z,68.66
2019-01-23T08:02:54.762Z,68.81
2019-01-23T08:05:22.207Z,69.03
2019-01-23T08:07:49.658Z,69.26
2019-01-23T08:10:18.117Z,69.73
2019-01-23T08:12:45.582Z,69.40
2019-01-23T08:15:21.238Z,69.31
2019-01-23T08:17:48.683Z,69.46
2019-01-23T08:20:16.146Z,69.52
2019-01-23T08:22:43.592Z,69.70
2019-01-23T08:25:11.033Z,69.63
2019-01-23T08:27:38.499Z,69.93
2019-01-23T08:30:05.945Z,69.84
2019-01-23T08:32:33.388Z,69.97
2019-01-23T08:35:01.187Z,70.11
2019-01-23T08:37:28.649Z,70.50
2019-01-23T08:39:56.097Z,70.82
2019-01-23T08:42:23.522Z,70.93
2019-01-23T08:44:50.988Z,70.98
2019-01-23T08:47:20.620Z,71.01
2019-01-23T08:49:48.166Z,70.98
2019-01-23T08:52:15.629Z,71.12
2019-01-23T08:54:43.086Z,71.21
2019-01-23T08:57:10.529Z,70.65
2019-01-23T08:59:37.971Z,70.40
2019-01-23T09:02:05.552Z,70.29
2019-01-23T09:04:33.048Z,70.14
2019-01-23T09:07:00.482Z,70.13
2019-01-23T09:09:27.935Z,69.95
2019-01-23T09:11:55.434Z,69.86
2019-01-23T09:14:22.871Z,69.60
2019-01-23T09:16:50.306Z,69.64
2019-01-23T09:19:17.778Z,69.46
2019-01-23T09:21:45.199Z,69.57
2019-01-23T09:24:12.739Z,69.33
2019-01-23T09:26:40.186Z,68.98
2019-01-23T09:29:07.648Z,69.10
2019-01-23T09:31:41.622Z,68.87
2019-01-23T09:34:10.756Z,68.65
2019-01-23T09:36:39.806Z,68.18
2019-01-23T09:39:22.795Z,68.28
2019-01-23T09:42:09.466Z,68.32
2019-01-23T09:45:03.519Z,68.12
2019-01-23T09:47:47.426Z,68.79
2019-01-23T09:50:28.598Z,67.88
2019-01-23T09:52:57.690Z,67.47
2019-01-23T09:55:25.181Z,68.34
2019-01-23T09:57:53.945Z,68.61
2019-01-23T10:00:22.361Z,68.66
2019-01-23T10:02:49.792Z,68.25
2019-01-23T10:05:17.215Z,67.40
2019-01-23T10:07:44.686Z,68.12
2019-01-23T10:10:13.056Z,68.15
2019-01-23T10:12:40.526Z,67.79
2019-01-23T10:15:07.965Z,67.45
2019-01-23T10:17:35.426Z,67.50
2019-01-23T10:20:03.339Z,67.45
2019-01-23T10:22:30.783Z,67.13
2019-01-23T10:24:58.248Z,67.32
2019-01-23T10:27:25.691Z,67.65
2019-01-23T10:29:53.139Z,67.29
2019-01-23T10:32:20.634Z,67.77
2019-01-23T10:34:48.059Z,67.69
2019-01-23T10:37:19.476Z,66.93
2019-01-23T10:39:42.991Z,67.24
2019-01-23T10:42:10.451Z,67.00
2019-01-23T10:44:37.916Z,67.35
2019-01-23T10:47:05.351Z,67.33
2019-01-23T10:49:32.827Z,67.04
2019-01-23T10:52:00.290Z,67.20
2019-01-23T10:54:27.726Z,67.00
2019-01-23T10:56:55.199Z,66.97
2019-01-23T10:59:22.687Z,67.19
2019-01-23T11:01:50.129Z,66.94
2019-01-23T11:04:17.582Z,66.52
2019-01-23T11:06:46.024Z,66.34
2019-01-23T11:09:13.543Z,66.29
2019-01-23T11:11:41.022Z,66.21
2019-01-23T11:14:08.481Z,66.02
2019-01-23T11:16:35.943Z,66.07
2019-01-23T11:19:03.410Z,66.00
2019-01-23T11:21:30.865Z,66.02
2019-01-23T11:23:58.306Z,66.04
2019-01-23T11:26:25.817Z,66.18
2019-01-23T11:28:53.261Z,66.34
2019-01-23T11:31:20.729Z,65.83
2019-01-23T11:33:48.205Z,65.57
2019-01-23T11:36:15.681Z,65.93
2019-01-23T11:38:43.112Z,65.97
2019-01-23T11:41:10.574Z,66.02
2019-01-23T11:43:38.026Z,66.06
2019-01-23T11:48:55.822Z,66.53
2019-01-23T11:51:24.252Z,67.08
2019-01-23T11:53:51.776Z,66.82
2019-01-23T11:56:19.259Z,66.76
2019-01-23T11:58:46.713Z,66.34
2019-01-23T12:01:14.191Z,66.08
2019-01-23T12:03:41.624Z,65.92
2019-01-23T12:06:09.100Z,66.53
2019-01-23T12:08:36.575Z,66.34
2019-01-23T12:11:04.011Z,66.35
2019-01-23T12:13:31.435Z,66.03
2019-01-23T12:15:58.892Z,65.88
2019-01-23T12:18:26.397Z,65.84
2019-01-23T12:20:53.898Z,65.58
2019-01-23T12:23:21.347Z,65.51
2019-01-23T12:25:48.789Z,65.51
2019-01-23T12:28:16.245Z,65.26
2019-01-23T12:30:43.706Z,65.02
2019-01-23T12:33:11.165Z,65.58
2019-01-23T12:35:38.597Z,65.43
2019-01-23T12:38:06.972Z,64.89
2019-01-23T12:40:34.434Z,65.31
2019-01-23T12:43:01.877Z,65.38
2019-01-23T12:45:29.325Z,65.45
2019-01-23T12:47:56.785Z,64.87
2019-01-23T12:50:25.871Z,65.38
2019-01-23T12:52:53.305Z,65.22
2019-01-23T12:55:20.741Z,65.31
2019-01-23T12:57:48.207Z,65.44
2019-01-23T13:00:16.585Z,65.00
2019-01-23T13:02:44.053Z,64.79
2019-01-23T13:05:11.511Z,64.43
2019-01-23T13:07:38.969Z,64.85
2019-01-23T13:10:08.603Z,64.87
2019-01-23T13:12:37.051Z,65.04
2019-01-23T13:15:04.485Z,64.87
2019-01-23T13:17:31.962Z,65.31
2019-01-23T13:19:59.411Z,65.19
2019-01-23T13:22:26.835Z,64.91
2019-01-23T13:24:54.289Z,64.81
2019-01-23T13:27:21.763Z,65.10
2019-01-23T13:29:49.214Z,65.20
2019-01-23T13:32:16.639Z,64.79
2019-01-23T13:34:44.107Z,64.63
2019-01-23T13:37:12.404Z,64.93
2019-01-23T13:39:39.894Z,64.62
2019-01-23T13:42:07.455Z,64.58
2019-01-23T13:44:34.901Z,64.86
2019-01-23T13:47:02.372Z,64.70
2019-01-23T13:49:29.828Z,64.53
2019-01-23T13:51:57.294Z,64.89
2019-01-23T13:54:24.785Z,64.53
2019-01-23T13:56:52.276Z,64.16
2019-01-23T13:59:19.724Z,64.58
2019-01-23T14:01:47.171Z,64.26
2019-01-23T14:04:15.227Z,64.64
2019-01-23T14:06:42.712Z,64.65
2019-01-23T14:09:10.163Z,65.17
2019-01-23T14:11:38.073Z,65.46
2019-01-23T14:14:05.537Z,65.14
2019-01-23T14:16:33.009Z,65.24
2019-01-23T14:19:00.451Z,65.15
2019-01-23T14:21:27.894Z,65.15
2019-01-23T14:23:55.330Z,65.52
2019-01-23T14:26:22.926Z,65.58
2019-01-23T14:28:50.413Z,65.32
2019-01-23T14:31:17.861Z,65.26
2019-01-23T14:33:45.305Z,65.02
2019-01-23T14:36:12.767Z,65.77
2019-01-23T14:38:40.211Z,65.68
2019-01-23T14:41:08.557Z,65.22
2019-01-23T14:43:35.980Z,65.04
2019-01-23T14:46:03.528Z,65.47
2019-01-23T14:48:30.990Z,65.04
2019-01-23T14:50:58.463Z,64.80
2019-01-23T14:53:25.949Z,65.04
2019-01-23T14:55:53.406Z,64.77
2019-01-23T14:58:20.840Z,64.69
2019-01-23T15:00:48.321Z,64.46
2019-01-23T15:03:16.403Z,64.54
2019-01-23T15:05:43.886Z,64.55
2019-01-23T15:08:11.343Z,64.82
2019-01-23T15:10:39.305Z,64.91
2019-01-23T15:13:06.748Z,64.62
2019-01-23T15:15:34.230Z,64.49
2019-01-23T15:18:01.676Z,64.69
2019-01-23T15:20:32.431Z,64.83
2019-01-23T15:22:59.938Z,64.57
2019-01-23T15:25:27.405Z,64.44
2019-01-23T15:27:54.849Z,64.76
2019-01-23T15:30:22.367Z,64.85
2019-01-23T15:32:49.817Z,65.37
2019-01-23T15:35:17.242Z,65.21
2019-01-23T15:37:44.690Z,65.33
2019-01-23T15:40:13.043Z,65.00
2019-01-23T15:42:40.480Z,65.26
2019-01-23T15:45:07.953Z,65.57
2019-01-23T15:47:35.428Z,65.05
2019-01-23T15:50:03.779Z,65.54
2019-01-23T15:52:30.331Z,65.30
2019-01-23T15:54:57.779Z,65.17
2019-01-23T15:57:25.218Z,64.98
2019-01-23T15:59:52.647Z,65.10
2019-01-23T16:02:24.275Z,64.50
2019-01-23T16:04:47.600Z,64.82
2019-01-23T16:07:15.086Z,64.78
2019-01-23T16:09:42.533Z,64.65
2019-01-23T16:12:10.574Z,64.21
2019-01-23T16:14:38.035Z,64.07
2019-01-23T16:17:05.513Z,64.12
2019-01-23T16:19:32.977Z,64.65
2019-01-23T16:22:00.432Z,64.75
2019-01-23T16:24:27.893Z,69.59
2019-01-23T16:26:55.377Z,65.72
2019-01-23T16:29:22.873Z,64.77
2019-01-23T16:31:50.321Z,64.94
2019-01-23T16:34:17.830Z,64.86
2019-01-23T16:36:45.308Z,64.42
2019-01-23T16:39:12.712Z,64.29
2019-01-23T16:41:41.162Z,64.51
2019-01-23T16:44:08.742Z,64.21
2019-01-23T16:46:36.138Z,64.35
2019-01-23T16:49:03.608Z,64.45
2019-01-23T16:51:31.070Z,64.33
2019-01-23T16:53:58.515Z,64.33
2019-01-23T16:56:25.966Z,64.64
2019-01-23T16:58:54.442Z,64.51
2019-01-23T17:01:21.992Z,64.90
2019-01-23T17:03:49.434Z,64.30
2019-01-23T17:06:16.894Z,64.39
2019-01-23T17:08:44.378Z,64.25
2019-01-23T17:11:11.891Z,64.57
2019-01-23T17:13:39.316Z,64.56
2019-01-23T17:16:06.766Z,64.47
2019-01-23T17:18:34.223Z,64.15
2019-01-23T17:21:01.709Z,64.39
2019-01-23T17:23:29.163Z,64.58
2019-01-23T17:25:56.600Z,64.61
2019-01-23T17:28:24.050Z,64.64
2019-01-23T17:30:51.491Z,64.87
2019-01-23T17:33:18.950Z,64.50
2019-01-23T17:35:46.399Z,64.70
2019-01-23T17:38:14.740Z,64.61
2019-01-23T17:40:42.186Z,64.81
2019-01-23T17:43:11.098Z,65.07
2019-01-23T17:45:38.641Z,65.49
2019-01-23T17:48:06.130Z,65.38
2019-01-23T17:50:33.544Z,65.04
2019-01-23T17:53:00.994Z,64.86
2019-01-23T17:55:30.296Z,64.89
2019-01-23T17:57:57.751Z,64.98
2019-01-23T18:00:25.556Z,65.09
2019-01-23T18:02:52.988Z,65.10
2019-01-23T18:05:20.143Z,65.46
2019-01-23T18:07:47.579Z,65.19
2019-01-23T18:10:15.302Z,65.24
2019-01-23T18:12:42.923Z,65.28
2019-01-23T18:15:12.991Z,65.16
2019-01-23T18:17:40.501Z,65.47
2019-01-23T18:20:09.656Z,65.22
2019-01-23T18:22:37.101Z,64.81
2019-01-23T18:25:04.550Z,64.83
2019-01-23T18:27:33.401Z,65.01
2019-01-23T18:29:59.511Z,64.89
2019-01-23T18:32:26.959Z,64.83
2019-01-23T18:34:59.909Z,64.78
2019-01-23T18:37:31.049Z,64.79
2019-01-23T18:40:03.718Z,64.85
2019-01-23T18:42:32.154Z,64.80
2019-01-23T18:45:00.321Z,65.02
2019-01-23T18:47:43.367Z,65.10
2019-01-23T18:50:24.268Z,65.08
2019-01-23T18:52:51.785Z,65.19
2019-01-23T18:55:19.254Z,65.45
2019-01-23T18:57:46.701Z,65.02
2019-01-23T19:00:15.027Z,64.62
2019-01-23T19:02:42.513Z,65.05
2019-01-23T19:05:09.966Z,65.34
2019-01-23T19:07:37.425Z,65.24
2019-01-23T19:10:05.037Z,64.82
2019-01-23T19:12:32.504Z,65.19
2019-01-23T19:14:59.955Z,64.98
2019-01-23T19:17:27.448Z,65.45
2019-01-23T19:19:54.950Z,65.12
2019-01-23T19:22:22.422Z,65.19
2019-01-23T19:24:49.887Z,64.74
2019-01-23T19:27:17.367Z,65.02
2019-01-23T19:29:44.864Z,64.98
2019-01-23T19:34:39.740Z,65.12
2019-01-23T19:37:07.197Z,65.02
2019-01-23T19:39:34.646Z,65.35
2019-01-23T19:42:02.071Z,65.00
2019-01-23T19:44:29.512Z,65.18
2019-01-23T19:46:56.929Z,65.06
2019-01-23T19:49:24.442Z,65.10
2019-01-23T19:51:51.870Z,65.51
2019-01-23T19:54:19.313Z,65.38
2019-01-23T19:56:46.776Z,64.95
2019-01-23T19:59:14.257Z,65.07
2019-01-23T20:01:41.690Z,65.10
2019-01-23T20:04:09.142Z,65.29
2019-01-23T20:06:36.597Z,64.85
2019-01-23T20:09:04.063Z,64.62
2019-01-23T20:11:31.536Z,64.83
2019-01-23T20:13:58.997Z,64.96
2019-01-23T20:16:26.430Z,65.38
2019-01-23T20:18:53.898Z,65.08
2019-01-23T20:21:21.386Z,65.37
2019-01-23T20:23:49.574Z,65.69
2019-01-23T20:26:17.041Z,65.56
2019-01-23T20:28:44.510Z,65.38
2019-01-23T20:31:11.947Z,65.48
2019-01-23T20:33:39.400Z,65.40
2019-01-23T20:36:06.882Z,65.51
2019-01-23T20:38:34.340Z,65.55
2019-01-23T20:41:01.787Z,65.60
2019-01-23T20:43:30.004Z,65.67
2019-01-23T20:45:56.743Z,65.17
2019-01-23T20:48:24.237Z,65.33
2019-01-23T20:50:51.673Z,65.64
2019-01-23T20:53:19.165Z,65.40
2019-01-23T20:55:46.645Z,65.53
2019-01-23T20:58:14.106Z,65.39
2019-01-23T21:00:42.569Z,65.55
2019-01-23T21:03:10.105Z,65.42
2019-01-23T21:05:37.545Z,65.76
2019-01-23T21:08:05.069Z,65.71
2019-01-23T21:10:32.531Z,65.65
2019-01-23T21:13:00.001Z,65.53
2019-01-23T21:15:27.465Z,66.05
2019-01-23T21:17:54.936Z,65.94
2019-01-23T21:20:22.536Z,66.05
2019-01-23T21:22:50.061Z,65.90
2019-01-23T21:25:17.548Z,66.00
2019-01-23T21:27:44.986Z,66.29
2019-01-23T21:30:15.977Z,66.17
2019-01-23T21:32:43.415Z,66.31
2019-01-23T21:35:10.854Z,66.39
2019-01-23T21:37:38.309Z,66.42
2019-01-23T21:40:05.731Z,66.37
2019-01-23T21:42:33.205Z,66.61
2019-01-23T21:45:00.691Z,66.30
2019-01-23T21:47:28.208Z,66.22
2019-01-23T21:49:55.719Z,66.35
2019-01-23T21:52:23.228Z,66.35
2019-01-23T21:54:50.682Z,66.39
2019-01-23T21:57:18.122Z,66.51
2019-01-23T21:59:45.625Z,66.53
2019-01-23T22:02:13.081Z,66.69
2019-01-23T22:04:40.529Z,67.01
2019-01-23T22:07:07.953Z,67.10
2019-01-23T22:09:35.406Z,66.50
2019-01-23T22:12:02.875Z,66.40
2019-01-23T22:14:30.366Z,66.57
2019-01-23T22:16:57.852Z,66.30
2019-01-23T22:19:25.682Z,66.62
2019-01-23T22:21:53.515Z,66.67
2019-01-23T22:24:20.624Z,66.84
2019-01-23T22:26:48.241Z,66.88
2019-01-23T22:29:15.716Z,66.74
2019-01-23T22:31:43.191Z,66.55
2019-01-23T22:34:10.620Z,66.34
2019-01-23T22:36:38.097Z,66.48
2019-01-23T22:39:05.722Z,66.52
2019-01-23T22:41:33.164Z,66.49
2019-01-23T22:44:00.632Z,66.55
2019-01-23T22:46:28.086Z,66.59
2019-01-23T22:48:55.584Z,66.66
2019-01-23T22:51:23.054Z,66.82
2019-01-23T22:53:50.525Z,66.87
2019-01-23T22:56:18.819Z,66.85
2019-01-23T22:58:46.379Z,66.89
2019-01-23T23:01:13.824Z,67.00
2019-01-23T23:03:41.296Z,67.17
2019-01-23T23:06:08.790Z,67.01
2019-01-23T23:08:36.294Z,67.07
2019-01-23T23:11:03.721Z,66.66
2019-01-23T23:13:31.142Z,66.97
2019-01-23T23:15:58.574Z,66.66
2019-01-23T23:18:26.049Z,66.67
2019-01-23T23:20:53.545Z,66.81
2019-01-23T23:23:21.213Z,66.75
2019-01-23T23:25:49.523Z,66.88
2019-01-23T23:28:17.038Z,66.83
2019-01-23T23:30:44.500Z,66.84
2019-01-23T23:33:11.942Z,66.73
2019-01-23T23:35:39.367Z,66.90
2019-01-23T23:38:06.829Z,67.01
2019-01-23T23:40:34.245Z,66.71
2019-01-23T23:43:01.670Z,66.85
2019-01-23T23:45:29.109Z,66.85
2019-01-23T23:47:56.537Z,66.84
2019-01-23T23:50:23.982Z,66.50
2019-01-23T23:52:51.435Z,66.76
2019-01-23T23:55:18.861Z,66.78
2019-01-23T23:57:46.314Z,66.57
